Terminal Aerodrome Forecast
Issued by NWS Tuscon, AZ

Home | Current Version | Previous Version | Text Only | Print | Product List | Glossary On
Versions: 1 2 3 4 5 6 7 8 9 10 11 12
000
FTUS45 KTWC 261127
TAFDUG
TAF
KDUG 261127Z 2612/2712 33008KT P6SM SCT250
     FM261900 28015G24KT P6SM SCT250
     FM270500 33008KT P6SM SCT250
     FM271000 VRB03KT P6SM SCT250=

USA.gov is the U.S. government's official web portal to all federal, state and local government web resources and services.